»·PEaware :: N47332B CZST-CYVR

N47332B :: CZST-CYVR

FLIGHT INFORMATION

Flight Status: Arrived
Operator: Privately registered:
United States
More flights under this callsign
Pilot: Kenny J. (11300)
Aircraft: CESSNA 172 SKYHAWK
(C172)
More flights by this aircraft type
Origin: CZST Stewart
Canada
Destination: CYVR Vancouver Intl
Canada
More flights between these airports :: More routes between these airports
Route: DCT XT B25 YJQ V317 YZT V440 CORMO V317 FENEL V440 ATUNA V317 COHOE V440 QQ V317 TREEL CUL20 VARSY
File this flight plan on PilotEdge
Remarks:
Altitude:
(Current/Filed)
9,500ft
Speed:
(Current/Filed)
110kts
Departed: 31-Jul-16 12:06 PM
Arrived: 31-Jul-16 08:59 PM
Distance/Time
Traveled:
473nm/8:52
Distance/Time
To Go:
Arrived

Flight Plot

Page will automatically refresh every two minutes.


Map Options




Map Legend


Flown Route
Filed Route
Departure Airport
Arrival Airport
Navaid (VOR, NDB)
Fix

Horizontal Profiles

Position Reports

Time Latitude Longitude Heading Altitude Ground
Speed
31-Jul-16 11:53 55.935988 -129.982694 209 25ft 0kts
31-Jul-16 11:54 55.935988 -129.982694 209 25ft 0kts
31-Jul-16 11:55 55.935988 -129.982694 209 25ft 0kts
31-Jul-16 11:56 55.935988 -129.982694 209 25ft 0kts
31-Jul-16 11:57 55.935988 -129.982694 209 25ft 0kts
31-Jul-16 11:58 55.935957 -129.982725 207 25ft 4kts
31-Jul-16 11:59 55.935510 -129.982613 105 25ft 1kts
31-Jul-16 12:00 55.926939 -129.988481 196 241ft 69kts
31-Jul-16 12:01 55.908208 -130.003557 205 997ft 76kts
31-Jul-16 12:02 55.888717 -130.023482 211 1718ft 87kts
31-Jul-16 12:03 55.866411 -130.046392 210 2386ft 93kts
31-Jul-16 12:04 55.843514 -130.070076 208 3039ft 96kts
31-Jul-16 12:05 55.819546 -130.091015 203 3658ft 97kts
31-Jul-16 12:06 55.795355 -130.111867 207 4267ft 98kts
31-Jul-16 12:07 55.776015 -130.124115 198 4721ft 98kts
31-Jul-16 12:08 55.751705 -130.129517 180 5270ft 96kts
31-Jul-16 12:09 55.725718 -130.130250 180 5858ft 94kts
31-Jul-16 12:10 55.700334 -130.130981 180 6442ft 92kts
31-Jul-16 12:11 55.675224 -130.130585 178 6991ft 93kts
31-Jul-16 12:12 55.653661 -130.114514 122 7486ft 95kts
31-Jul-16 12:13 55.639775 -130.075556 122 7977ft 95kts
31-Jul-16 12:14 55.625986 -130.036949 122 8462ft 94kts
31-Jul-16 12:15 55.612314 -129.998732 121 8947ft 93kts
31-Jul-16 12:16 55.598809 -129.961031 122 9372ft 98kts
31-Jul-16 12:17 55.582401 -129.915468 122 9383ft 119kts
31-Jul-16 12:18 55.564684 -129.866482 122 9380ft 117kts
31-Jul-16 12:19 55.550532 -129.827635 121 9477ft 110kts
31-Jul-16 12:20 55.535415 -129.786025 121 9483ft 114kts
31-Jul-16 12:21 55.520087 -129.743947 121 9482ft 115kts
31-Jul-16 12:22 55.504628 -129.701613 121 9482ft 115kts
31-Jul-16 12:23 55.488858 -129.658532 121 9482ft 116kts
31-Jul-16 12:24 55.473640 -129.617058 121 9482ft 115kts
31-Jul-16 12:25 55.457689 -129.573689 121 9482ft 115kts
31-Jul-16 12:26 55.440676 -129.539806 138 9482ft 116kts
31-Jul-16 12:27 55.416582 -129.510095 147 9482ft 117kts
31-Jul-16 12:28 55.391502 -129.484763 150 9482ft 117kts
31-Jul-16 12:29 55.366391 -129.461142 151 9482ft 117kts
31-Jul-16 12:30 55.341594 -129.438394 151 9482ft 117kts
31-Jul-16 12:31 55.316722 -129.415792 151 9482ft 117kts
31-Jul-16 12:32 55.292407 -129.393788 151 9482ft 117kts
31-Jul-16 12:33 55.269169 -129.372807 151 9482ft 117kts
31-Jul-16 12:34 55.246404 -129.352291 151 9482ft 117kts
31-Jul-16 12:35 55.226633 -129.334147 151 9480ft 117kts
31-Jul-16 12:36 55.204731 -129.314209 151 9477ft 118kts
31-Jul-16 12:37 55.183194 -129.294776 151 9474ft 119kts
31-Jul-16 12:38 55.162216 -129.275922 152 9470ft 120kts
31-Jul-16 12:39 55.142300 -129.258064 152 9466ft 121kts
31-Jul-16 12:40 55.125866 -129.243350 152 9464ft 122kts
31-Jul-16 12:41 55.106889 -129.226380 152 9461ft 123kts
31-Jul-16 12:42 55.087764 -129.209375 151 9460ft 123kts
31-Jul-16 12:43 55.068695 -129.192337 150 9458ft 123kts
31-Jul-16 12:44 55.049146 -129.174896 150 9457ft 123kts
31-Jul-16 12:45 55.029696 -129.157572 150 9456ft 124kts
31-Jul-16 12:46 55.009692 -129.139780 150 9456ft 124kts
31-Jul-16 12:47 54.989472 -129.121820 150 9456ft 124kts
31-Jul-16 12:48 54.968858 -129.103532 150 9456ft 124kts
31-Jul-16 12:49 54.948324 -129.085399 149 9456ft 123kts
31-Jul-16 12:50 54.927624 -129.067046 149 9456ft 122kts
31-Jul-16 12:51 54.906838 -129.048658 149 9456ft 121kts
31-Jul-16 12:52 54.888725 -129.032658 149 9454ft 120kts
31-Jul-16 12:53 54.870316 -129.016415 149 9454ft 119kts
31-Jul-16 12:54 54.851425 -128.999765 149 9454ft 119kts
31-Jul-16 12:55 54.833249 -128.983762 149 9454ft 119kts
31-Jul-16 12:56 54.815425 -128.968087 149 9454ft 119kts
31-Jul-16 12:57 54.797432 -128.952294 149 9454ft 118kts
31-Jul-16 12:58 54.779547 -128.936588 149 9454ft 118kts
31-Jul-16 12:59 54.761367 -128.920644 149 9454ft 118kts
31-Jul-16 13:00 54.743268 -128.904789 149 9454ft 118kts
31-Jul-16 13:01 54.725113 -128.888900 149 9454ft 118kts
31-Jul-16 13:02 54.706692 -128.872796 149 9454ft 119kts
31-Jul-16 13:03 54.686303 -128.854845 151 9453ft 120kts
31-Jul-16 13:04 54.667268 -128.838296 152 9455ft 122kts
31-Jul-16 13:05 54.647978 -128.821540 152 9455ft 123kts
31-Jul-16 13:06 54.628300 -128.804436 152 9455ft 123kts
31-Jul-16 13:07 54.605592 -128.784706 152 9455ft 123kts
31-Jul-16 13:08 54.586392 -128.768036 152 9455ft 124kts
31-Jul-16 13:09 54.566945 -128.751170 152 9455ft 123kts
31-Jul-16 13:10 54.547489 -128.734492 148 9456ft 122kts
31-Jul-16 13:11 54.528039 -128.717570 148 9454ft 119kts
31-Jul-16 13:12 54.508323 -128.700474 148 9454ft 118kts
31-Jul-16 13:13 54.488352 -128.683202 148 9454ft 118kts
31-Jul-16 13:14 54.468496 -128.666061 148 9455ft 118kts
31-Jul-16 13:15 54.449168 -128.649398 148 9455ft 118kts
31-Jul-16 13:16 54.430061 -128.632947 148 9455ft 118kts
31-Jul-16 13:17 54.411078 -128.616405 151 9455ft 120kts
31-Jul-16 13:18 54.391256 -128.599477 152 9456ft 122kts
31-Jul-16 13:19 54.370595 -128.587690 187 9458ft 122kts
31-Jul-16 13:20 54.348767 -128.592406 189 9457ft 123kts
31-Jul-16 13:21 54.326679 -128.597874 190 9456ft 123kts
31-Jul-16 13:22 54.304751 -128.603596 191 9455ft 123kts
31-Jul-16 13:23 54.283463 -128.609227 191 9455ft 123kts
31-Jul-16 13:24 54.261505 -128.615057 190 9456ft 123kts
31-Jul-16 13:25 54.239478 -128.620950 191 9456ft 123kts
31-Jul-16 13:26 54.217012 -128.626966 191 9456ft 123kts
31-Jul-16 13:27 54.193860 -128.633167 191 9456ft 123kts
31-Jul-16 13:28 54.170710 -128.639334 190 9455ft 123kts
31-Jul-16 13:29 54.146852 -128.645696 191 9456ft 123kts
31-Jul-16 13:30 54.122414 -128.652211 191 9456ft 123kts
31-Jul-16 13:31 54.097501 -128.658840 191 9456ft 123kts
31-Jul-16 13:32 54.072787 -128.665397 191 9456ft 123kts
31-Jul-16 13:33 54.046881 -128.667200 172 9457ft 125kts
31-Jul-16 13:34 54.022002 -128.660000 171 9457ft 125kts
31-Jul-16 13:35 53.993860 -128.651454 170 9456ft 125kts
31-Jul-16 13:36 53.967101 -128.643225 170 9456ft 125kts
31-Jul-16 13:37 53.944884 -128.636355 170 9457ft 125kts
31-Jul-16 13:38 53.915757 -128.627374 170 9484ft 124kts
31-Jul-16 13:39 53.884900 -128.617865 171 9481ft 125kts
31-Jul-16 13:40 53.862754 -128.611025 170 9482ft 124kts
31-Jul-16 13:41 53.836430 -128.602913 171 9482ft 124kts
31-Jul-16 13:42 53.810218 -128.594854 170 9482ft 124kts
31-Jul-16 13:43 53.784463 -128.586931 170 9482ft 124kts
31-Jul-16 13:44 53.758882 -128.579075 170 9481ft 124kts
31-Jul-16 13:45 53.734753 -128.571681 171 9482ft 124kts
31-Jul-16 13:46 53.710564 -128.564310 170 9482ft 124kts
31-Jul-16 13:47 53.686011 -128.556813 171 9482ft 125kts
31-Jul-16 13:48 53.661541 -128.549309 170 9483ft 125kts
31-Jul-16 13:49 53.636964 -128.541843 169 9482ft 125kts
31-Jul-16 13:50 53.612325 -128.534295 171 9482ft 125kts
31-Jul-16 13:51 53.587924 -128.526888 171 9482ft 125kts
31-Jul-16 13:52 53.562503 -128.519188 170 9482ft 125kts
31-Jul-16 13:53 53.536781 -128.511391 170 9483ft 125kts
31-Jul-16 13:54 53.510859 -128.503497 171 9483ft 125kts
31-Jul-16 13:55 53.484668 -128.495563 169 9483ft 125kts
31-Jul-16 13:56 53.458173 -128.487534 170 9483ft 125kts
31-Jul-16 13:57 53.432374 -128.479780 171 9484ft 125kts
31-Jul-16 13:58 53.406073 -128.471820 170 9489ft 125kts
31-Jul-16 13:59 53.379416 -128.463812 171 9497ft 125kts
31-Jul-16 14:00 53.349704 -128.454849 171 9505ft 125kts
31-Jul-16 14:01 53.316539 -128.444897 170 9515ft 126kts
31-Jul-16 14:02 53.283120 -128.434859 171 9526ft 125kts
31-Jul-16 14:03 53.250486 -128.425080 171 9532ft 121kts
31-Jul-16 14:04 53.218747 -128.415592 171 9535ft 121kts
31-Jul-16 14:05 53.187288 -128.406187 171 9535ft 116kts
31-Jul-16 14:06 53.157497 -128.397285 171 9500ft 112kts
31-Jul-16 14:07 53.128408 -128.388626 171 9501ft 104kts
31-Jul-16 14:08 53.099786 -128.380096 171 9501ft 108kts
31-Jul-16 14:09 53.071465 -128.371666 171 9500ft 102kts
31-Jul-16 14:10 53.044455 -128.363621 171 9494ft 94kts
31-Jul-16 14:11 53.020944 -128.360240 189 9255ft 90kts
31-Jul-16 14:12 52.993772 -128.363752 185 8578ft 105kts
31-Jul-16 14:13 52.970738 -128.359225 150 8222ft 90kts
31-Jul-16 14:14 52.951406 -128.343417 169 7513ft 101kts
31-Jul-16 14:15 52.935114 -128.369940 246 6885ft 106kts
31-Jul-16 14:16 52.909172 -128.387345 190 6626ft 111kts
31-Jul-16 14:34 55.846799 -130.069357 211 3194ft 93kts
31-Jul-16 14:35 55.828391 -130.089028 210 3690ft 93kts
31-Jul-16 14:36 55.805627 -130.110197 201 4289ft 92kts
31-Jul-16 14:37 55.781520 -130.126293 201 4890ft 92kts
31-Jul-16 14:38 55.757674 -130.142157 201 5486ft 91kts
31-Jul-16 14:39 55.735120 -130.156813 199 6053ft 90kts
31-Jul-16 14:40 55.715066 -130.171271 201 6564ft 90kts
31-Jul-16 14:41 55.691934 -130.185758 169 7128ft 90kts
31-Jul-16 14:42 55.676667 -130.151443 121 7637ft 93kts
31-Jul-16 14:43 55.662950 -130.112834 121 8131ft 94kts
31-Jul-16 14:44 55.650738 -130.078393 123 8566ft 94kts
31-Jul-16 14:45 55.637298 -130.040699 123 9046ft 93kts
31-Jul-16 14:56 55.935977 -129.982700 209 25ft 0kts
31-Jul-16 14:57 55.935977 -129.982700 209 25ft 0kts
31-Jul-16 14:58 55.935977 -129.982700 209 25ft 0kts
31-Jul-16 14:59 55.935977 -129.982700 209 25ft 0kts
31-Jul-16 15:00 55.935977 -129.982700 209 25ft 0kts
31-Jul-16 15:01 55.935977 -129.982700 209 25ft 0kts
31-Jul-16 15:02 55.935858 -129.982792 200 25ft 2kts
31-Jul-16 15:03 55.935579 -129.982862 152 25ft 0kts
31-Jul-16 15:04 55.935406 -129.982519 125 25ft 7kts
31-Jul-16 15:05 55.928901 -129.987173 202 120ft 60kts
31-Jul-16 15:06 55.912721 -130.002015 209 835ft 73kts
31-Jul-16 15:07 55.893098 -130.021218 206 1549ft 85kts
31-Jul-16 15:08 55.871503 -130.040175 201 2172ft 94kts
31-Jul-16 15:09 55.846792 -130.058229 201 2778ft 96kts
31-Jul-16 15:10 55.822060 -130.076152 202 3378ft 96kts
31-Jul-16 15:11 55.797807 -130.093410 201 3969ft 94kts
31-Jul-16 15:12 55.773064 -130.109284 194 4572ft 94kts
31-Jul-16 15:13 55.747908 -130.120249 194 5168ft 93kts
31-Jul-16 15:14 55.722832 -130.130996 194 5768ft 92kts
31-Jul-16 15:15 55.698169 -130.141381 194 6363ft 90kts
31-Jul-16 15:16 55.674391 -130.151421 194 6949ft 88kts
31-Jul-16 15:17 55.651839 -130.160908 194 7515ft 86kts
31-Jul-16 15:18 55.631819 -130.169295 194 8030ft 83kts
31-Jul-16 15:19 55.609791 -130.178547 194 8525ft 87kts
31-Jul-16 15:20 55.587564 -130.187841 194 8991ft 89kts
31-Jul-16 15:21 55.564818 -130.197326 194 9447ft 91kts
31-Jul-16 15:22 55.537082 -130.208898 194 9486ft 118kts
31-Jul-16 15:23 55.504831 -130.222389 194 9482ft 125kts
31-Jul-16 15:24 55.472632 -130.235727 194 9479ft 114kts
31-Jul-16 15:25 55.443504 -130.247672 194 9481ft 109kts
31-Jul-16 15:26 55.414822 -130.259397 194 9482ft 107kts
31-Jul-16 15:27 55.386052 -130.271138 194 9482ft 107kts
31-Jul-16 15:28 55.357248 -130.282876 194 9482ft 107kts
31-Jul-16 15:29 55.328506 -130.294413 194 9486ft 107kts
31-Jul-16 15:30 55.299799 -130.305619 194 9491ft 107kts
31-Jul-16 15:31 55.270911 -130.316581 194 9495ft 107kts
31-Jul-16 15:32 55.241890 -130.327326 194 9502ft 108kts
31-Jul-16 15:33 55.212450 -130.338054 194 9507ft 109kts
31-Jul-16 15:34 55.187646 -130.347048 194 9510ft 110kts
31-Jul-16 15:35 55.157411 -130.357990 194 9509ft 110kts
31-Jul-16 15:36 55.127424 -130.368826 194 9509ft 110kts
31-Jul-16 15:37 55.097185 -130.379767 194 9509ft 110kts
31-Jul-16 15:38 55.067005 -130.390650 194 9508ft 110kts
31-Jul-16 15:39 55.037594 -130.401278 194 9509ft 110kts
31-Jul-16 15:40 55.007507 -130.412066 194 9509ft 110kts
31-Jul-16 15:41 54.977408 -130.422904 194 9509ft 110kts
31-Jul-16 15:42 54.951731 -130.432111 194 9509ft 110kts
31-Jul-16 15:43 54.921801 -130.442819 194 9509ft 110kts
31-Jul-16 15:44 54.892561 -130.453294 194 9509ft 110kts
31-Jul-16 15:45 54.863808 -130.463583 194 9509ft 109kts
31-Jul-16 15:46 54.834334 -130.474105 194 9508ft 109kts
31-Jul-16 15:47 54.804263 -130.484853 194 9510ft 112kts
31-Jul-16 15:48 54.773057 -130.496145 194 9509ft 116kts
31-Jul-16 15:49 54.740972 -130.507736 194 9509ft 117kts
31-Jul-16 15:50 54.708949 -130.519297 194 9509ft 118kts
31-Jul-16 15:51 54.676623 -130.530960 194 9509ft 118kts
31-Jul-16 15:52 54.644254 -130.542655 194 9509ft 119kts
31-Jul-16 15:53 54.612223 -130.554181 194 9509ft 119kts
31-Jul-16 15:54 54.586612 -130.563414 194 9509ft 119kts
31-Jul-16 15:55 54.554524 -130.574969 194 9509ft 119kts
31-Jul-16 15:56 54.522421 -130.586484 194 9508ft 119kts
31-Jul-16 15:57 54.499262 -130.561107 122 9509ft 121kts
31-Jul-16 15:58 54.481461 -130.513174 122 9508ft 122kts
31-Jul-16 15:59 54.463465 -130.464883 122 9509ft 122kts
31-Jul-16 16:00 54.445343 -130.416387 122 9509ft 123kts
31-Jul-16 16:01 54.421674 -130.375711 140 9509ft 123kts
31-Jul-16 16:02 54.395897 -130.337861 140 9509ft 124kts
31-Jul-16 16:03 54.370465 -130.300593 140 9509ft 123kts
31-Jul-16 16:04 54.345300 -130.263763 139 9509ft 122kts
31-Jul-16 16:05 54.320058 -130.226870 139 9509ft 122kts
31-Jul-16 16:06 54.295441 -130.190941 139 9509ft 122kts
31-Jul-16 16:07 54.270807 -130.155065 139 9509ft 122kts
31-Jul-16 16:08 54.245889 -130.118798 139 9509ft 122kts
31-Jul-16 16:09 54.221133 -130.082825 139 9509ft 122kts
31-Jul-16 16:10 54.196748 -130.047431 139 9509ft 122kts
31-Jul-16 16:11 54.172467 -130.012248 139 9509ft 123kts
31-Jul-16 16:12 54.148149 -129.977065 139 9509ft 123kts
31-Jul-16 16:13 54.123626 -129.941607 139 9510ft 123kts
31-Jul-16 16:14 54.099903 -129.907377 139 9510ft 123kts
31-Jul-16 16:15 54.077044 -129.874418 139 9510ft 123kts
31-Jul-16 16:16 54.053174 -129.840081 139 9510ft 123kts
31-Jul-16 16:17 54.029725 -129.806337 139 9507ft 123kts
31-Jul-16 16:18 54.008043 -129.775454 136 9498ft 121kts
31-Jul-16 16:19 53.985350 -129.742935 136 9486ft 119kts
31-Jul-16 16:20 53.966388 -129.715468 140 9473ft 121kts
31-Jul-16 16:21 53.945727 -129.685945 140 9456ft 123kts
31-Jul-16 16:22 53.923679 -129.654497 139 9433ft 124kts
31-Jul-16 16:23 53.902589 -129.624437 139 9423ft 124kts
31-Jul-16 16:24 53.882950 -129.596468 139 9424ft 123kts
31-Jul-16 16:25 53.861090 -129.565364 139 9433ft 123kts
31-Jul-16 16:26 53.838478 -129.533241 139 9440ft 123kts
31-Jul-16 16:27 53.815526 -129.500696 139 9442ft 123kts
31-Jul-16 16:28 53.792739 -129.468450 139 9440ft 124kts
31-Jul-16 16:29 53.769900 -129.436190 139 9434ft 124kts
31-Jul-16 16:30 53.750990 -129.409528 139 9426ft 124kts
31-Jul-16 16:31 53.724144 -129.371751 139 9409ft 124kts
31-Jul-16 16:32 53.705862 -129.346027 139 9400ft 124kts
31-Jul-16 16:33 53.683323 -129.313499 138 9400ft 123kts
31-Jul-16 16:34 53.667746 -129.291031 138 9400ft 123kts
31-Jul-16 16:35 53.648916 -129.263905 138 9400ft 123kts
31-Jul-16 16:36 53.630890 -129.237974 138 9400ft 123kts
31-Jul-16 16:37 53.613009 -129.212285 138 9400ft 123kts
31-Jul-16 16:38 53.595010 -129.186460 138 9401ft 123kts
31-Jul-16 16:39 53.576707 -129.160234 139 9403ft 123kts
31-Jul-16 16:40 53.558299 -129.133895 139 9403ft 123kts
31-Jul-16 16:41 53.539077 -129.106433 138 9401ft 123kts
31-Jul-16 16:42 53.520647 -129.080136 138 9401ft 123kts
31-Jul-16 16:43 53.502321 -129.054024 138 9401ft 123kts
31-Jul-16 16:44 53.483790 -129.027655 138 9401ft 123kts
31-Jul-16 16:45 53.465490 -129.001649 139 9401ft 123kts
31-Jul-16 16:46 53.446586 -128.974823 139 9401ft 123kts
31-Jul-16 16:47 53.427632 -128.947958 139 9403ft 123kts
31-Jul-16 16:48 53.409204 -128.921876 139 9405ft 123kts
31-Jul-16 16:49 53.390572 -128.895546 139 9404ft 123kts
31-Jul-16 16:50 53.371306 -128.868362 139 9401ft 123kts
31-Jul-16 16:51 53.352012 -128.841171 139 9401ft 123kts
31-Jul-16 16:52 53.329892 -128.810045 139 9401ft 123kts
31-Jul-16 16:53 53.307942 -128.779206 139 9401ft 123kts
31-Jul-16 16:54 53.293262 -128.758611 139 9401ft 123kts
31-Jul-16 16:55 53.275702 -128.734001 139 9402ft 123kts
31-Jul-16 16:56 53.258716 -128.710226 139 9413ft 123kts
31-Jul-16 16:57 53.240375 -128.684583 139 9425ft 122kts
31-Jul-16 16:58 53.222375 -128.659452 139 9438ft 122kts
31-Jul-16 16:59 53.216429 -128.651157 139 9442ft 122kts
31-Jul-16 17:00 53.201794 -128.630733 139 9453ft 122kts
31-Jul-16 17:01 53.176494 -128.595499 139 9476ft 123kts
31-Jul-16 17:02 53.150092 -128.558801 139 9484ft 124kts
31-Jul-16 17:03 53.124088 -128.522730 139 9617ft 118kts
31-Jul-16 17:04 53.101078 -128.490857 139 9986ft 105kts
31-Jul-16 17:05 53.081061 -128.463107 138 10279ft 99kts
31-Jul-16 17:06 53.061239 -128.435510 139 10568ft 95kts
31-Jul-16 17:07 53.042082 -128.408962 140 10580ft 120kts
31-Jul-16 17:08 53.015114 -128.372741 147 10500ft 126kts
31-Jul-16 17:09 52.984163 -128.350836 165 10501ft 121kts
31-Jul-16 17:10 52.954659 -128.338339 170 10500ft 120kts
31-Jul-16 17:11 52.922718 -128.327652 172 10500ft 121kts
31-Jul-16 17:12 52.892643 -128.318446 172 10499ft 121kts
31-Jul-16 17:13 52.860816 -128.309025 174 10484ft 118kts
31-Jul-16 17:14 52.831948 -128.300459 172 10497ft 117kts
31-Jul-16 17:15 52.801721 -128.291564 172 10496ft 109kts
31-Jul-16 17:16 52.773746 -128.283333 172 10494ft 95kts
31-Jul-16 17:17 52.748992 -128.276036 172 10334ft 97kts
31-Jul-16 17:18 52.745347 -128.274973 173 10289ft 99kts
31-Jul-16 17:19 52.717448 -128.266867 173 9895ft 104kts
31-Jul-16 17:20 52.689809 -128.258807 173 9480ft 98kts
31-Jul-16 17:21 52.665773 -128.251767 173 9079ft 89kts
31-Jul-16 17:22 52.641782 -128.244752 173 8630ft 90kts
31-Jul-16 17:23 52.615804 -128.237240 174 8151ft 99kts
31-Jul-16 17:24 52.587565 -128.229099 173 7757ft 108kts
31-Jul-16 17:25 52.556596 -128.220154 173 7505ft 115kts
31-Jul-16 17:26 52.524806 -128.210971 173 7503ft 121kts
31-Jul-16 17:27 52.490383 -128.201035 173 7500ft 127kts
31-Jul-16 17:28 52.456377 -128.191215 173 7499ft 123kts
31-Jul-16 17:29 52.425333 -128.182274 173 7499ft 121kts
31-Jul-16 17:30 52.392360 -128.172792 174 7499ft 121kts
31-Jul-16 17:31 52.359179 -128.163262 174 7500ft 121kts
31-Jul-16 17:32 52.326324 -128.153839 174 7500ft 121kts
31-Jul-16 17:33 52.298910 -128.145988 174 7500ft 121kts
31-Jul-16 17:34 52.260593 -128.135030 174 7500ft 121kts
31-Jul-16 17:35 52.233018 -128.127156 174 7500ft 121kts
31-Jul-16 17:36 52.201857 -128.118269 174 7500ft 121kts
31-Jul-16 17:37 52.169117 -128.105005 166 7500ft 122kts
31-Jul-16 17:38 52.136712 -128.088469 166 7500ft 122kts
31-Jul-16 17:39 52.104095 -128.071743 166 7500ft 124kts
31-Jul-16 17:40 52.071127 -128.054828 166 7500ft 125kts
31-Jul-16 17:41 52.037900 -128.037800 166 7500ft 125kts
31-Jul-16 17:42 52.004723 -128.020823 166 7500ft 125kts
31-Jul-16 17:43 51.971714 -128.003957 166 7500ft 126kts
31-Jul-16 17:44 51.938144 -127.986832 165 7500ft 127kts
31-Jul-16 17:45 51.904683 -127.969789 165 7500ft 127kts
31-Jul-16 17:46 51.873221 -127.953789 165 7499ft 127kts
31-Jul-16 17:47 51.840082 -127.936962 165 7499ft 128kts
31-Jul-16 17:48 51.806480 -127.919925 165 7499ft 128kts
31-Jul-16 17:49 51.772863 -127.902904 165 7499ft 128kts
31-Jul-16 17:50 51.739528 -127.885982 163 7513ft 126kts
31-Jul-16 17:51 51.708869 -127.870680 168 7495ft 124kts
31-Jul-16 17:52 51.675998 -127.854068 165 7500ft 126kts
31-Jul-16 17:53 51.642716 -127.837284 165 7500ft 127kts
31-Jul-16 17:54 51.609512 -127.820591 165 7500ft 127kts
31-Jul-16 17:55 51.576338 -127.803947 165 7500ft 127kts
31-Jul-16 17:56 51.542843 -127.787170 165 7500ft 127kts
31-Jul-16 17:57 51.510171 -127.770832 165 7500ft 122kts
31-Jul-16 17:58 51.478523 -127.755045 165 7506ft 120kts
31-Jul-16 17:59 51.449282 -127.740469 165 7511ft 120kts
31-Jul-16 18:00 51.418158 -127.724971 164 7517ft 120kts
31-Jul-16 18:01 51.388567 -127.710256 164 7522ft 120kts
31-Jul-16 18:02 51.360009 -127.696073 164 7526ft 120kts
31-Jul-16 18:03 51.331209 -127.681776 164 7527ft 120kts
31-Jul-16 18:04 51.301761 -127.667186 164 7527ft 120kts
31-Jul-16 18:05 51.273757 -127.653331 164 7527ft 120kts
31-Jul-16 18:06 51.244611 -127.638932 164 7528ft 120kts
31-Jul-16 18:07 51.213798 -127.623730 164 7528ft 120kts
31-Jul-16 18:08 51.183080 -127.608597 164 7528ft 120kts
31-Jul-16 18:09 51.152154 -127.593382 164 7528ft 120kts
31-Jul-16 18:10 51.120990 -127.578072 164 7528ft 121kts
31-Jul-16 18:11 51.090234 -127.562984 164 7528ft 121kts
31-Jul-16 18:12 51.059339 -127.547848 164 7528ft 121kts
31-Jul-16 18:13 51.028782 -127.532948 163 7528ft 121kts
31-Jul-16 18:14 50.999608 -127.518663 162 7528ft 121kts
31-Jul-16 18:15 50.967565 -127.503016 163 7528ft 121kts
31-Jul-16 18:16 50.935346 -127.487316 163 7528ft 121kts
31-Jul-16 18:17 50.903229 -127.471690 163 7528ft 121kts
31-Jul-16 18:18 50.872890 -127.456951 163 7526ft 121kts
31-Jul-16 18:19 50.841451 -127.441698 163 7526ft 120kts
31-Jul-16 18:20 50.810608 -127.426756 163 7526ft 120kts
31-Jul-16 18:21 50.779508 -127.411710 163 7526ft 120kts
31-Jul-16 18:22 50.748403 -127.396684 163 7527ft 121kts
31-Jul-16 18:23 50.717043 -127.381554 163 7527ft 121kts
31-Jul-16 18:24 50.685869 -127.364756 135 7524ft 120kts
31-Jul-16 18:25 50.670789 -127.327563 118 7526ft 119kts
31-Jul-16 18:26 50.655684 -127.286946 117 7526ft 119kts
31-Jul-16 18:27 50.640819 -127.246624 117 7526ft 119kts
31-Jul-16 18:28 50.626368 -127.207354 117 7526ft 119kts
31-Jul-16 18:29 50.611711 -127.167546 117 7526ft 119kts
31-Jul-16 18:30 50.597459 -127.128881 117 7526ft 119kts
31-Jul-16 18:31 50.582656 -127.088781 117 7527ft 119kts
31-Jul-16 18:32 50.567905 -127.048882 117 7527ft 119kts
31-Jul-16 18:33 50.552669 -127.007737 117 7527ft 119kts
31-Jul-16 18:34 50.537405 -126.966778 117 7527ft 119kts
31-Jul-16 18:35 50.524228 -126.931743 117 7527ft 119kts
31-Jul-16 18:36 50.506147 -126.883748 117 7527ft 120kts
31-Jul-16 18:37 50.492539 -126.847688 117 7527ft 120kts
31-Jul-16 18:38 50.473499 -126.797315 117 7527ft 121kts
31-Jul-16 18:39 50.459968 -126.761571 117 7503ft 123kts
31-Jul-16 18:40 50.443091 -126.716720 116 7499ft 122kts
31-Jul-16 18:41 50.426147 -126.671719 116 7500ft 121kts
31-Jul-16 18:42 50.409579 -126.627792 116 7500ft 121kts
31-Jul-16 18:43 50.393828 -126.586098 116 7500ft 121kts
31-Jul-16 18:44 50.377547 -126.543075 116 7500ft 121kts
31-Jul-16 18:45 50.361850 -126.501694 116 7500ft 122kts
31-Jul-16 18:46 50.345995 -126.459992 116 7497ft 122kts
31-Jul-16 18:47 50.329763 -126.417365 116 7488ft 121kts
31-Jul-16 18:48 50.313646 -126.375059 116 7478ft 121kts
31-Jul-16 18:49 50.300540 -126.340601 117 7470ft 120kts
31-Jul-16 18:50 50.287027 -126.304666 116 7462ft 119kts
31-Jul-16 18:51 50.274062 -126.270580 116 7452ft 118kts
31-Jul-16 18:52 50.261051 -126.236593 116 7447ft 118kts
31-Jul-16 18:53 50.248642 -126.204242 116 7443ft 118kts
31-Jul-16 18:54 50.235965 -126.171240 116 7447ft 117kts
31-Jul-16 18:55 50.224108 -126.140444 116 7450ft 116kts
31-Jul-16 18:56 50.212442 -126.110145 117 7451ft 117kts
31-Jul-16 18:57 50.199661 -126.076981 116 7449ft 117kts
31-Jul-16 18:58 50.186703 -126.043441 117 7450ft 117kts
31-Jul-16 18:59 50.173670 -126.009781 116 7447ft 117kts
31-Jul-16 19:00 50.160363 -125.975423 115 7447ft 116kts
31-Jul-16 19:01 50.147636 -125.942577 115 7446ft 116kts
31-Jul-16 19:02 50.134192 -125.907950 116 7445ft 117kts
31-Jul-16 19:03 50.120487 -125.872702 116 7447ft 117kts
31-Jul-16 19:04 50.107202 -125.838555 115 7445ft 119kts
31-Jul-16 19:05 50.094600 -125.806209 116 7449ft 119kts
31-Jul-16 19:06 50.082593 -125.775475 116 7447ft 119kts
31-Jul-16 19:07 50.070497 -125.744531 116 7449ft 119kts
31-Jul-16 19:08 50.058647 -125.714217 116 7444ft 119kts
31-Jul-16 19:09 50.046428 -125.683051 116 7447ft 118kts
31-Jul-16 19:10 50.034585 -125.652762 116 7446ft 119kts
31-Jul-16 19:11 50.022547 -125.622169 116 7448ft 119kts
31-Jul-16 19:12 50.010177 -125.590696 116 7449ft 118kts
31-Jul-16 19:13 49.998400 -125.560752 116 7445ft 119kts
31-Jul-16 19:14 49.986583 -125.530725 116 7446ft 120kts
31-Jul-16 19:15 49.973869 -125.498520 116 7450ft 119kts
31-Jul-16 19:16 49.960614 -125.464934 116 7447ft 120kts
31-Jul-16 19:17 49.946726 -125.429467 121 7293ft 131kts
31-Jul-16 19:18 49.931400 -125.391631 121 7079ft 137kts
31-Jul-16 19:19 49.917143 -125.356670 121 6878ft 137kts
31-Jul-16 19:20 49.907410 -125.332494 122 6736ft 137kts
31-Jul-16 19:21 49.896778 -125.306053 122 6577ft 137kts
31-Jul-16 19:22 49.886286 -125.280174 122 6419ft 136kts
31-Jul-16 19:23 49.875625 -125.254004 122 6258ft 136kts
31-Jul-16 19:24 49.864811 -125.227535 122 6095ft 135kts
31-Jul-16 19:25 49.853199 -125.199163 122 5920ft 135kts
31-Jul-16 19:26 49.841284 -125.170096 122 5739ft 134kts
31-Jul-16 19:27 49.828544 -125.139105 121 5546ft 134kts
31-Jul-16 19:28 49.815814 -125.108094 121 5480ft 126kts
31-Jul-16 19:29 49.803366 -125.077816 121 5480ft 120kts
31-Jul-16 19:30 49.790929 -125.047606 121 5481ft 119kts
31-Jul-16 19:31 49.777418 -125.014830 121 5481ft 118kts
31-Jul-16 19:32 49.762902 -124.979666 121 5481ft 118kts
31-Jul-16 19:33 49.748031 -124.940780 117 5482ft 118kts
31-Jul-16 19:34 49.732891 -124.896448 125 5479ft 119kts
31-Jul-16 19:35 49.713960 -124.859354 127 5482ft 118kts
31-Jul-16 19:36 49.699002 -124.830176 127 5482ft 118kts
31-Jul-16 19:37 49.677333 -124.787987 128 5482ft 118kts
31-Jul-16 19:38 49.661119 -124.756469 128 5482ft 119kts
31-Jul-16 19:39 49.642465 -124.720278 128 5482ft 119kts
31-Jul-16 19:40 49.623930 -124.684388 128 5482ft 119kts
31-Jul-16 19:41 49.605169 -124.648133 129 5482ft 119kts
31-Jul-16 19:42 49.587974 -124.614967 129 5482ft 120kts
31-Jul-16 19:43 49.569707 -124.579803 129 5482ft 120kts
31-Jul-16 19:44 49.549750 -124.541477 129 5433ft 123kts
31-Jul-16 19:45 49.531884 -124.507263 129 5280ft 128kts
31-Jul-16 19:46 49.511754 -124.468791 129 5106ft 128kts
31-Jul-16 19:47 49.491336 -124.429852 129 4927ft 128kts
31-Jul-16 19:48 49.470726 -124.390636 129 4747ft 127kts
31-Jul-16 19:49 49.450301 -124.351854 129 4569ft 127kts
31-Jul-16 19:50 49.432624 -124.317638 129 4406ft 127kts
31-Jul-16 19:51 49.412426 -124.278589 127 4220ft 127kts
31-Jul-16 19:52 49.392389 -124.239911 126 4043ft 128kts
31-Jul-16 19:53 49.373652 -124.203766 125 3875ft 126kts
31-Jul-16 19:54 49.355234 -124.168257 125 3707ft 124kts
31-Jul-16 19:55 49.335844 -124.130913 125 3527ft 121kts
31-Jul-16 19:56 49.317662 -124.095950 125 3355ft 120kts
31-Jul-16 19:57 49.302360 -124.057897 109 3178ft 117kts
31-Jul-16 19:58 49.293497 -124.012418 101 2995ft 116kts
31-Jul-16 19:59 49.291211 -123.996254 99 2982ft 112kts
31-Jul-16 20:00 49.291211 -123.996254 99 2982ft 112kts
31-Jul-16 20:01 49.291211 -123.996254 99 2982ft 112kts
31-Jul-16 20:02 49.291211 -123.996254 99 2982ft 112kts
31-Jul-16 20:03 49.291211 -123.996254 99 2982ft 112kts
31-Jul-16 20:04 49.291211 -123.996254 99 2982ft 112kts
31-Jul-16 20:05 49.291211 -123.996254 99 2982ft 112kts
31-Jul-16 20:06 49.291211 -123.996254 99 2982ft 112kts
31-Jul-16 20:07 49.291211 -123.996254 99 2982ft 112kts
31-Jul-16 20:08 49.291211 -123.996254 99 2982ft 112kts
31-Jul-16 20:09 49.291211 -123.996254 99 2982ft 112kts
31-Jul-16 20:10 49.291211 -123.996254 99 2982ft 112kts
31-Jul-16 20:11 49.291211 -123.996254 99 2982ft 112kts
31-Jul-16 20:12 49.291211 -123.996254 99 2982ft 112kts
31-Jul-16 20:13 49.291211 -123.996254 99 2982ft 112kts
31-Jul-16 20:14 49.291211 -123.996254 99 2982ft 112kts
31-Jul-16 20:15 49.291211 -123.996254 99 2982ft 112kts
31-Jul-16 20:16 49.291211 -123.996254 99 2982ft 112kts
31-Jul-16 20:17 49.291211 -123.996254 99 2982ft 112kts
31-Jul-16 20:18 49.291211 -123.996254 99 2982ft 112kts
31-Jul-16 20:19 49.291211 -123.996254 99 2982ft 112kts
31-Jul-16 20:20 49.291211 -123.996254 99 2982ft 112kts
31-Jul-16 20:21 49.291211 -123.996254 99 2982ft 112kts
31-Jul-16 20:22 49.291211 -123.996254 99 2982ft 112kts
31-Jul-16 20:23 49.291211 -123.996254 99 2982ft 112kts
31-Jul-16 20:24 49.291211 -123.996254 99 2982ft 112kts
31-Jul-16 20:25 49.291211 -123.996254 99 2982ft 112kts
31-Jul-16 20:26 49.291211 -123.996254 99 2982ft 112kts
31-Jul-16 20:27 49.291211 -123.996254 99 2982ft 112kts
31-Jul-16 20:28 49.291211 -123.996254 99 2982ft 112kts
31-Jul-16 20:29 49.291211 -123.996254 99 2982ft 112kts
31-Jul-16 20:30 49.291211 -123.996254 99 2982ft 112kts
31-Jul-16 20:31 49.289893 -123.985234 103 2979ft 110kts
31-Jul-16 20:32 49.284868 -123.942836 102 2980ft 113kts
31-Jul-16 20:33 49.280081 -123.898744 101 2980ft 114kts
31-Jul-16 20:34 49.275489 -123.854185 101 2982ft 113kts
31-Jul-16 20:35 49.271741 -123.817432 100 2985ft 113kts
31-Jul-16 20:36 49.267582 -123.776759 100 2985ft 113kts
31-Jul-16 20:37 49.263521 -123.737115 101 2983ft 113kts
31-Jul-16 20:38 49.259385 -123.696709 101 2983ft 113kts
31-Jul-16 20:39 49.255078 -123.654707 101 2983ft 113kts
31-Jul-16 20:40 49.250644 -123.611580 101 2981ft 113kts
31-Jul-16 20:41 49.246309 -123.569514 100 2982ft 114kts
31-Jul-16 20:42 49.241342 -123.527977 101 2981ft 114kts
31-Jul-16 20:43 49.236899 -123.487387 101 2977ft 94kts
31-Jul-16 20:44 49.232973 -123.451751 102 2979ft 81kts
31-Jul-16 20:45 49.229320 -123.418648 100 2836ft 91kts
31-Jul-16 20:46 49.225311 -123.382509 99 2423ft 104kts
31-Jul-16 20:47 49.221239 -123.345897 100 1953ft 105kts
31-Jul-16 20:48 49.217124 -123.308888 100 1471ft 103kts
31-Jul-16 20:49 49.213229 -123.274013 100 1007ft 84kts
31-Jul-16 20:50 49.210200 -123.246830 99 694ft 75kts
31-Jul-16 20:51 49.206958 -123.219759 100 294ft 79kts
31-Jul-16 20:52 49.204682 -123.197397 102 17ft 56kts
31-Jul-16 20:53 49.204120 -123.191019 100 17ft 0kts
31-Jul-16 20:54 49.204120 -123.191019 100 17ft 0kts
31-Jul-16 20:55 49.204120 -123.191019 100 17ft 0kts
31-Jul-16 20:56 49.204120 -123.191019 100 17ft 0kts
31-Jul-16 20:57 49.204120 -123.191019 100 17ft 0kts
31-Jul-16 20:58 49.204120 -123.191019 100 17ft 0kts
31-Jul-16 20:59 49.204120 -123.191019 100 17ft 0kts
31-Jul-16 21:00 49.204120 -123.191019 100 17ft 0kts
31-Jul-16 21:01 49.204120 -123.191019 100 17ft 0kts
31-Jul-16 21:02 49.204120 -123.191019 100 17ft 0kts
31-Jul-16 21:03 49.204120 -123.191019 100 17ft 0kts
31-Jul-16 21:04 49.204120 -123.191019 100 17ft 0kts
31-Jul-16 21:05 49.204120 -123.191019 100 17ft 0kts
31-Jul-16 21:06 49.204120 -123.191019 100 17ft 0kts
31-Jul-16 21:07 49.204120 -123.191019 100 17ft 0kts

Navigation Log

Ident Type
1. CZST Airport
2. XT Navaid
3. ZKI Navaid
4. YJQ Navaid
5. YZT Navaid
6. CORMO Fix
7. FENEL Fix
8. ATUNA Fix
9. COHOE Fix
10. QQ Navaid
11. JAINE Fix
12. MACAR Fix
13. TREEL Fix
14. VARSY Fix
15. CYVR Airport